createdAt,value
2019-05-10T00:01:56.686Z,13.40
2019-05-10T00:04:43.506Z,13.40
2019-05-10T00:07:29.886Z,13.40
2019-05-10T00:09:57.949Z,13.30
2019-05-10T00:12:31.075Z,13.40
2019-05-10T00:14:59.973Z,13.40
2019-05-10T00:17:28.799Z,13.40
2019-05-10T00:19:57.688Z,13.40
2019-05-10T00:22:26.523Z,13.30
2019-05-10T00:25:03.933Z,13.30
2019-05-10T00:27:25.893Z,13.30
2019-05-10T00:29:54.722Z,13.20
2019-05-10T00:32:23.614Z,13.20
2019-05-10T00:34:52.443Z,13.20
2019-05-10T00:37:21.280Z,13.20
2019-05-10T00:39:50.143Z,13.20
2019-05-10T00:42:18.998Z,13.20
2019-05-10T00:44:47.896Z,13.20
2019-05-10T00:47:16.724Z,13.20
2019-05-10T00:49:45.555Z,13.30
2019-05-10T00:52:14.404Z,13.30
2019-05-10T00:54:43.239Z,13.40
2019-05-10T00:57:12.313Z,13.40
2019-05-10T00:59:41.143Z,13.40
2019-05-10T01:02:09.965Z,13.40
2019-05-10T01:04:38.845Z,13.40
2019-05-10T01:07:07.653Z,13.40
2019-05-10T01:09:36.532Z,13.30
2019-05-10T01:12:05.353Z,13.40
2019-05-10T01:14:34.182Z,13.40
2019-05-10T01:17:03.043Z,13.40
2019-05-10T01:19:31.860Z,13.30
2019-05-10T01:22:00.762Z,13.20
2019-05-10T01:24:29.573Z,13.20
2019-05-10T01:26:58.421Z,13.10
2019-05-10T01:29:27.282Z,13.10
2019-05-10T01:31:56.134Z,13.10
2019-05-10T01:34:24.998Z,13.00
2019-05-10T01:36:53.895Z,12.90
2019-05-10T01:39:22.743Z,12.90
2019-05-10T01:41:51.634Z,12.90
2019-05-10T01:44:20.437Z,12.90
2019-05-10T01:46:49.352Z,12.90
2019-05-10T01:49:18.159Z,12.90
2019-05-10T01:51:46.994Z,12.90
2019-05-10T01:54:16.082Z,12.80
2019-05-10T01:56:44.907Z,12.90
2019-05-10T01:59:13.765Z,12.80
2019-05-10T02:01:42.619Z,12.80
2019-05-10T02:04:11.437Z,12.90
2019-05-10T02:06:40.289Z,12.80
2019-05-10T02:09:09.108Z,12.70
2019-05-10T02:11:38.008Z,12.80
2019-05-10T02:14:06.829Z,12.70
2019-05-10T02:16:35.658Z,12.80
2019-05-10T02:19:04.518Z,12.90
2019-05-10T02:21:33.346Z,12.90
2019-05-10T02:24:02.237Z,12.90
2019-05-10T02:26:31.062Z,13.00
2019-05-10T02:28:59.895Z,13.00
2019-05-10T02:31:28.751Z,13.00
2019-05-10T02:33:57.599Z,13.10
2019-05-10T02:36:26.485Z,13.10
2019-05-10T02:38:55.312Z,13.10
2019-05-10T02:41:24.142Z,13.00
2019-05-10T02:43:52.993Z,13.00
2019-05-10T02:46:21.808Z,13.00
2019-05-10T02:48:50.712Z,13.00
2019-05-10T02:51:19.538Z,13.10
2019-05-10T02:53:48.352Z,13.10
2019-05-10T02:56:29.819Z,13.10
2019-05-10T02:58:49.104Z,13.10
2019-05-10T03:01:21.253Z,13.00
2019-05-10T03:03:50.690Z,13.10
2019-05-10T03:06:20.616Z,13.10
2019-05-10T03:08:54.501Z,13.10
2019-05-10T03:11:23.381Z,13.00
2019-05-10T03:13:53.938Z,13.00
2019-05-10T03:16:23.783Z,13.00
2019-05-10T03:18:53.688Z,12.90
2019-05-10T03:21:24.557Z,12.90
2019-05-10T03:23:53.503Z,12.90
2019-05-10T03:26:22.627Z,12.90
2019-05-10T03:28:51.581Z,12.70
2019-05-10T03:31:20.552Z,12.70
2019-05-10T03:33:55.577Z,12.70
2019-05-10T03:36:19.861Z,12.70
2019-05-10T03:38:49.234Z,12.70
2019-05-10T03:41:18.063Z,12.70
2019-05-10T03:43:46.975Z,12.70
2019-05-10T03:46:15.803Z,12.70
2019-05-10T03:48:44.634Z,12.60
2019-05-10T03:51:13.480Z,12.60
2019-05-10T03:53:42.294Z,12.70
2019-05-10T03:56:11.185Z,12.70
2019-05-10T03:58:39.997Z,12.70
2019-05-10T04:01:08.835Z,12.70
2019-05-10T04:03:37.724Z,12.80
2019-05-10T04:06:06.531Z,12.80
2019-05-10T04:08:35.429Z,12.70
2019-05-10T04:11:04.279Z,12.80
2019-05-10T04:13:33.090Z,12.70
2019-05-10T04:16:01.986Z,12.60
2019-05-10T04:18:30.788Z,12.60
2019-05-10T04:20:59.682Z,12.70
2019-05-10T04:23:28.538Z,12.70
2019-05-10T04:25:57.347Z,12.80
2019-05-10T04:28:26.219Z,12.80
2019-05-10T04:30:55.024Z,12.90
2019-05-10T04:33:23.910Z,13.00
2019-05-10T04:35:52.755Z,13.20
2019-05-10T04:38:21.574Z,13.20
2019-05-10T04:40:50.465Z,13.30
2019-05-10T04:43:19.495Z,13.40
2019-05-10T04:45:48.384Z,13.50
2019-05-10T04:48:17.230Z,13.70
2019-05-10T04:50:48.998Z,13.70
2019-05-10T04:53:16.587Z,13.80
2019-05-10T04:55:45.426Z,13.80
2019-05-10T04:58:14.239Z,13.80
2019-05-10T05:00:43.145Z,13.80
2019-05-10T05:03:12.087Z,13.80
2019-05-10T05:05:40.978Z,13.80
2019-05-10T05:08:09.770Z,13.90
2019-05-10T05:10:38.587Z,13.90
2019-05-10T05:13:07.466Z,13.90
2019-05-10T05:15:36.275Z,13.90
2019-05-10T05:18:05.675Z,13.90
2019-05-10T05:20:34.499Z,14.00
2019-05-10T05:23:03.357Z,14.00
2019-05-10T05:25:35.196Z,14.00
2019-05-10T05:28:08.099Z,14.00
2019-05-10T05:30:33.219Z,14.10
2019-05-10T05:33:02.063Z,14.10
2019-05-10T05:35:31.108Z,14.20
2019-05-10T05:38:00.140Z,14.30
2019-05-10T05:40:28.970Z,14.30
2019-05-10T05:43:02.488Z,14.30
2019-05-10T05:45:33.734Z,14.40
2019-05-10T05:47:58.805Z,14.30
2019-05-10T05:50:27.729Z,14.40
2019-05-10T05:52:56.541Z,14.60
2019-05-10T05:55:30.464Z,14.60
2019-05-10T05:57:59.115Z,14.70
2019-05-10T06:00:26.405Z,14.80
2019-05-10T06:02:55.234Z,14.90
2019-05-10T06:05:33.495Z,15.00
2019-05-10T06:07:54.653Z,15.00
2019-05-10T06:10:23.473Z,15.20
2019-05-10T06:12:53.028Z,15.30
2019-05-10T06:15:23.004Z,15.40
2019-05-10T06:17:57.277Z,15.50
2019-05-10T06:20:23.177Z,15.70
2019-05-10T06:23:05.804Z,16.00
2019-05-10T06:25:37.968Z,16.20
2019-05-10T06:27:52.976Z,16.60
2019-05-10T06:30:22.106Z,16.80
2019-05-10T06:32:53.214Z,17.00
2019-05-10T06:35:21.452Z,17.00
2019-05-10T06:37:50.328Z,17.30
2019-05-10T06:40:32.444Z,17.50
2019-05-10T06:42:49.665Z,17.60
2019-05-10T06:45:18.539Z,17.70
2019-05-10T06:47:49.171Z,17.70
2019-05-10T06:50:29.009Z,17.80
2019-05-10T06:52:51.988Z,17.90
2019-05-10T06:55:19.658Z,18.00
2019-05-10T06:57:50.542Z,17.90
2019-05-10T07:00:19.535Z,18.00
2019-05-10T07:02:48.428Z,18.10
2019-05-10T07:05:17.268Z,18.20
2019-05-10T07:07:46.083Z,18.40
2019-05-10T07:10:19.059Z,18.60
2019-05-10T07:12:45.766Z,18.70
2019-05-10T07:15:16.100Z,19.00
2019-05-10T07:17:47.208Z,19.20
2019-05-10T07:20:15.423Z,19.60
2019-05-10T07:22:44.327Z,19.80
2019-05-10T07:25:13.236Z,20.10
2019-05-10T07:27:42.096Z,20.10
2019-05-10T07:30:11.050Z,20.20
2019-05-10T07:32:39.882Z,20.50
2019-05-10T07:35:08.766Z,20.70
2019-05-10T07:37:37.574Z,20.70
2019-05-10T07:40:07.954Z,20.80
2019-05-10T07:42:39.735Z,20.90
2019-05-10T07:45:08.145Z,20.80
2019-05-10T07:47:37.012Z,20.90
2019-05-10T07:50:09.657Z,20.80
2019-05-10T07:52:43.561Z,20.70
2019-05-10T07:55:10.560Z,21.10
2019-05-10T07:57:39.159Z,21.40
2019-05-10T08:00:08.635Z,21.70
2019-05-10T08:02:37.460Z,22.30
2019-05-10T08:05:10.906Z,22.30
2019-05-10T08:07:38.703Z,22.00
2019-05-10T08:10:08.838Z,21.90
2019-05-10T08:12:41.317Z,22.10
2019-05-10T08:15:09.310Z,22.50
2019-05-10T08:17:43.299Z,22.50
2019-05-10T08:20:16.172Z,22.70
2019-05-10T08:22:42.319Z,22.50
2019-05-10T08:25:12.763Z,22.60
2019-05-10T08:27:44.145Z,22.90
2019-05-10T08:30:24.368Z,22.50
2019-05-10T08:32:42.479Z,21.90
2019-05-10T08:35:16.852Z,21.80
2019-05-10T08:37:43.320Z,22.00
2019-05-10T08:40:12.901Z,22.10
2019-05-10T08:42:48.277Z,22.70
2019-05-10T08:45:12.619Z,23.00
2019-05-10T08:47:42.717Z,23.00
2019-05-10T08:50:28.780Z,23.10
2019-05-10T08:52:42.635Z,23.00
2019-05-10T08:55:12.374Z,22.80
2019-05-10T08:57:44.592Z,22.40
2019-05-10T09:00:12.985Z,22.10
2019-05-10T09:02:42.790Z,21.60
2019-05-10T09:05:12.685Z,21.70
2019-05-10T09:07:42.934Z,21.80
2019-05-10T09:10:12.806Z,21.90
2019-05-10T09:12:50.926Z,22.00
2019-05-10T09:15:13.650Z,22.10
2019-05-10T09:17:43.089Z,22.00
2019-05-10T09:20:20.644Z,22.20
2019-05-10T09:22:43.431Z,21.90
2019-05-10T09:25:12.869Z,21.90
2019-05-10T09:27:43.267Z,22.10
2019-05-10T09:30:18.091Z,22.20
2019-05-10T09:32:44.015Z,22.60
2019-05-10T09:35:13.219Z,23.00
2019-05-10T09:37:42.379Z,22.90
2019-05-10T09:40:13.314Z,22.80
2019-05-10T09:42:43.727Z,22.90
2019-05-10T09:45:13.322Z,22.70
2019-05-10T09:47:43.402Z,22.60
2019-05-10T09:50:13.836Z,22.80
2019-05-10T09:52:42.639Z,23.00
2019-05-10T09:55:14.886Z,23.10
2019-05-10T09:57:42.018Z,23.30
2019-05-10T10:00:11.844Z,23.20
2019-05-10T10:02:47.730Z,22.80
2019-05-10T10:05:11.754Z,23.00
2019-05-10T10:07:40.631Z,23.30
2019-05-10T10:10:12.610Z,23.50
2019-05-10T10:12:40.413Z,23.00
2019-05-10T10:15:13.369Z,22.60
2019-05-10T10:17:42.364Z,23.00
2019-05-10T10:20:10.589Z,23.00
2019-05-10T10:22:43.564Z,23.20
2019-05-10T10:25:09.977Z,23.40
2019-05-10T10:27:39.504Z,23.40
2019-05-10T10:30:12.605Z,23.50
2019-05-10T10:32:40.173Z,23.80
2019-05-10T10:35:13.207Z,23.80
2019-05-10T10:37:39.547Z,23.60
2019-05-10T10:40:09.148Z,23.10
2019-05-10T10:42:38.396Z,22.90
2019-05-10T10:45:09.586Z,23.00
2019-05-10T10:47:38.410Z,23.10
2019-05-10T10:50:13.203Z,23.20
2019-05-10T10:52:38.642Z,23.60
2019-05-10T10:55:11.185Z,24.00
2019-05-10T10:57:39.132Z,24.30
2019-05-10T11:00:10.390Z,24.50
2019-05-10T11:02:41.444Z,24.30
2019-05-10T11:05:10.254Z,24.50
2019-05-10T11:07:44.299Z,24.00
2019-05-10T11:10:16.109Z,24.10
2019-05-10T11:12:41.219Z,24.00
2019-05-10T11:15:11.468Z,23.80
2019-05-10T11:17:40.886Z,23.40
2019-05-10T11:20:11.512Z,23.00
2019-05-10T11:22:42.053Z,23.20
2019-05-10T11:25:12.947Z,23.50
2019-05-10T11:27:41.977Z,23.40
2019-05-10T11:30:12.132Z,23.60
2019-05-10T11:32:41.811Z,23.70
2019-05-10T11:35:16.901Z,23.90
2019-05-10T11:37:45.309Z,23.60
2019-05-10T11:40:18.146Z,23.70
2019-05-10T11:42:47.291Z,24.00
2019-05-10T11:45:14.925Z,24.30
2019-05-10T11:47:48.197Z,24.40
2019-05-10T11:52:46.253Z,24.80
2019-05-10T11:55:15.148Z,25.00
2019-05-10T11:57:44.422Z,25.00
2019-05-10T11:59:03.903Z,24.60
2019-05-10T12:00:28.097Z,25.00
2019-05-10T12:03:03.239Z,25.00
2019-05-10T12:05:19.842Z,24.80
2019-05-10T12:07:46.463Z,24.60
2019-05-10T12:10:21.123Z,24.80
2019-05-10T12:15:24.537Z,25.20
2019-05-10T12:17:52.474Z,25.20
2019-05-10T12:20:17.269Z,25.10
2019-05-10T12:22:47.715Z,24.80
2019-05-10T12:26:35.811Z,24.60
2019-05-10T12:26:59.165Z,24.90
2019-05-10T12:27:49.920Z,24.40
2019-05-10T12:30:18.050Z,24.20
2019-05-10T12:32:56.248Z,24.10
2019-05-10T12:35:17.414Z,24.10
2019-05-10T12:37:51.342Z,24.20
2019-05-10T12:40:16.748Z,24.40
2019-05-10T12:42:47.165Z,24.40
2019-05-10T12:45:16.578Z,24.20
2019-05-10T12:47:45.412Z,24.00
2019-05-10T12:50:14.591Z,23.70
2019-05-10T12:52:43.668Z,23.30
2019-05-10T12:55:14.122Z,23.20
2019-05-10T12:57:43.667Z,23.60
2019-05-10T13:00:15.761Z,23.60
2019-05-10T13:02:44.731Z,23.50
2019-05-10T13:05:15.553Z,23.70
2019-05-10T13:07:45.034Z,23.80
2019-05-10T13:10:14.009Z,24.20
2019-05-10T13:12:47.017Z,24.40
2019-05-10T13:15:13.681Z,24.40
2019-05-10T13:17:50.558Z,24.20
2019-05-10T13:20:13.802Z,24.10
2019-05-10T13:22:42.655Z,24.20
2019-05-10T13:25:11.693Z,24.20
2019-05-10T13:27:40.619Z,24.30
2019-05-10T13:30:11.330Z,24.40
2019-05-10T13:32:40.177Z,24.50
2019-05-10T13:35:09.063Z,24.70
2019-05-10T13:37:37.868Z,24.50
2019-05-10T13:40:08.262Z,24.40
2019-05-10T13:42:43.373Z,24.40
2019-05-10T13:45:07.977Z,24.40
2019-05-10T13:47:36.835Z,24.10
2019-05-10T13:50:07.618Z,24.10
2019-05-10T13:52:40.839Z,24.30
2019-05-10T13:55:09.990Z,24.40
2019-05-10T13:57:38.850Z,24.50
2019-05-10T14:00:09.463Z,24.50
2019-05-10T14:02:38.303Z,24.40
2019-05-10T14:05:11.962Z,24.50
2019-05-10T14:07:38.145Z,24.40
2019-05-10T14:10:07.222Z,24.60
2019-05-10T14:12:36.063Z,24.50
2019-05-10T14:15:12.830Z,24.30
2019-05-10T14:17:37.197Z,24.00
2019-05-10T14:20:19.739Z,24.00
2019-05-10T14:22:38.724Z,24.00
2019-05-10T14:25:08.039Z,24.00
2019-05-10T14:27:38.567Z,23.90
2019-05-10T14:30:13.443Z,23.80
2019-05-10T14:32:39.739Z,23.80
2019-05-10T14:35:08.718Z,23.90
2019-05-10T14:37:37.547Z,23.80
2019-05-10T14:40:07.570Z,23.50
2019-05-10T14:42:36.462Z,23.40
2019-05-10T14:45:07.184Z,23.30
2019-05-10T14:47:46.642Z,23.30
2019-05-10T14:50:07.330Z,23.40
2019-05-10T14:52:36.158Z,23.30
2019-05-10T14:55:07.204Z,23.40
2019-05-10T14:57:36.016Z,23.30
2019-05-10T15:00:07.192Z,23.30
2019-05-10T15:02:36.040Z,23.30
2019-05-10T15:05:09.015Z,23.40
2019-05-10T15:07:37.362Z,23.30
2019-05-10T15:10:06.575Z,23.30
2019-05-10T15:12:35.464Z,23.30
2019-05-10T15:15:05.597Z,23.30
2019-05-10T15:17:34.410Z,23.20
2019-05-10T15:20:04.170Z,23.10
2019-05-10T15:22:32.998Z,22.90
2019-05-10T15:25:01.870Z,22.90
2019-05-10T15:27:30.693Z,23.00
2019-05-10T15:30:05.119Z,22.90
2019-05-10T15:32:30.028Z,22.90
2019-05-10T15:35:06.426Z,23.00
2019-05-10T15:37:29.504Z,22.90
2019-05-10T15:40:00.493Z,22.90
2019-05-10T15:42:30.469Z,22.90
2019-05-10T15:45:05.333Z,22.80
2019-05-10T15:47:29.777Z,22.70
2019-05-10T15:49:59.948Z,22.50
2019-05-10T15:52:29.106Z,22.20
2019-05-10T15:54:57.926Z,22.30
2019-05-10T15:57:26.787Z,22.30
2019-05-10T15:59:59.031Z,22.50
2019-05-10T16:02:26.646Z,22.60
2019-05-10T16:04:55.476Z,22.60
2019-05-10T16:07:24.298Z,22.50
2019-05-10T16:09:54.486Z,22.50
2019-05-10T16:12:23.646Z,22.50
2019-05-10T16:14:52.498Z,22.40
2019-05-10T16:17:23.909Z,22.50
2019-05-10T16:19:59.483Z,22.50
2019-05-10T16:22:25.329Z,22.40
2019-05-10T16:24:53.005Z,22.40
2019-05-10T16:27:21.898Z,22.50
2019-05-10T16:29:50.728Z,22.40
2019-05-10T16:32:19.532Z,22.50
2019-05-10T16:34:48.438Z,22.50
2019-05-10T16:37:17.256Z,22.50
2019-05-10T16:39:46.154Z,22.40
2019-05-10T16:42:14.979Z,22.40
2019-05-10T16:44:43.815Z,22.30
2019-05-10T16:47:12.683Z,22.40
2019-05-10T16:49:41.500Z,22.40
2019-05-10T16:52:10.352Z,22.40
2019-05-10T16:54:39.179Z,22.30
2019-05-10T16:57:08.007Z,22.30
2019-05-10T16:59:36.887Z,22.20
2019-05-10T17:02:06.455Z,22.20
2019-05-10T17:04:37.905Z,22.10
2019-05-10T17:07:06.059Z,22.10
2019-05-10T17:09:34.932Z,22.20
2019-05-10T17:12:03.807Z,22.10
2019-05-10T17:14:32.616Z,22.10
2019-05-10T17:17:01.487Z,22.10
2019-05-10T17:19:34.213Z,22.00
2019-05-10T17:22:00.798Z,22.00
2019-05-10T17:24:29.636Z,21.90
2019-05-10T17:26:58.451Z,21.80
2019-05-10T17:29:27.315Z,21.70
2019-05-10T17:31:56.146Z,21.80
2019-05-10T17:34:29.527Z,21.70
2019-05-10T17:36:58.030Z,21.60
2019-05-10T17:39:31.897Z,21.60
2019-05-10T17:41:57.722Z,21.60
2019-05-10T17:44:26.936Z,21.50
2019-05-10T17:46:57.466Z,21.50
2019-05-10T17:49:26.289Z,21.40
2019-05-10T17:51:55.106Z,21.30
2019-05-10T17:54:23.971Z,21.30
2019-05-10T17:56:53.662Z,21.20
2019-05-10T17:59:22.517Z,21.10
2019-05-10T18:01:51.355Z,21.00
2019-05-10T18:04:20.185Z,20.80
2019-05-10T18:06:49.041Z,20.70
2019-05-10T18:09:17.868Z,20.70
2019-05-10T18:11:46.762Z,20.50
2019-05-10T18:14:18.009Z,20.40
2019-05-10T18:16:48.212Z,20.30
2019-05-10T18:19:19.207Z,20.30
2019-05-10T18:21:47.050Z,20.20
2019-05-10T18:24:15.941Z,20.10
2019-05-10T18:26:44.761Z,20.00
2019-05-10T18:29:13.597Z,20.00
2019-05-10T18:31:42.449Z,19.90
2019-05-10T18:34:11.360Z,19.80
2019-05-10T18:36:55.187Z,19.70
2019-05-10T18:39:15.516Z,19.70
2019-05-10T18:41:41.442Z,19.60
2019-05-10T18:44:14.191Z,19.50
2019-05-10T18:46:42.155Z,19.50
2019-05-10T18:49:11.026Z,19.50
2019-05-10T18:51:39.854Z,19.40
2019-05-10T18:54:08.694Z,19.30
2019-05-10T18:56:37.568Z,19.30
2019-05-10T18:59:07.364Z,19.30
2019-05-10T19:01:38.727Z,19.20
2019-05-10T19:04:13.687Z,19.20
2019-05-10T19:06:37.852Z,19.20
2019-05-10T19:09:07.389Z,19.20
2019-05-10T19:11:38.926Z,19.10
2019-05-10T19:14:06.830Z,19.10
2019-05-10T19:16:36.043Z,19.00
2019-05-10T19:19:04.859Z,19.00
2019-05-10T19:21:37.491Z,19.00
2019-05-10T19:24:04.304Z,19.00
2019-05-10T19:26:33.159Z,19.00
2019-05-10T19:29:05.237Z,19.00
2019-05-10T19:31:38.252Z,19.00
2019-05-10T19:34:08.908Z,18.90
2019-05-10T19:36:34.137Z,18.90
2019-05-10T19:39:03.023Z,18.90
2019-05-10T19:41:31.835Z,18.90
2019-05-10T19:44:02.376Z,18.90
2019-05-10T19:46:39.297Z,19.00
2019-05-10T19:49:01.640Z,19.00
2019-05-10T19:51:30.498Z,19.00
2019-05-10T19:53:59.326Z,18.90
2019-05-10T19:56:30.207Z,18.90
2019-05-10T19:58:58.642Z,18.70
2019-05-10T20:01:27.456Z,18.60
2019-05-10T20:03:56.357Z,18.50
2019-05-10T20:06:25.168Z,18.30
2019-05-10T20:08:53.995Z,18.20
2019-05-10T20:11:22.858Z,18.00
2019-05-10T20:13:51.677Z,18.00
2019-05-10T20:16:20.562Z,17.80
2019-05-10T20:18:49.394Z,17.80
2019-05-10T20:21:18.230Z,17.80
2019-05-10T20:23:47.098Z,17.80
2019-05-10T20:26:15.940Z,17.80
2019-05-10T20:28:44.836Z,17.70
2019-05-10T20:31:13.677Z,17.70
2019-05-10T20:33:42.484Z,17.70
2019-05-10T20:36:11.392Z,17.70
2019-05-10T20:38:40.233Z,17.70
2019-05-10T20:41:09.111Z,17.70
2019-05-10T20:43:38.034Z,17.60
2019-05-10T20:46:07.325Z,17.60
2019-05-10T20:48:36.693Z,17.60
2019-05-10T20:51:05.524Z,17.70
2019-05-10T20:53:34.384Z,17.70
2019-05-10T20:56:03.209Z,17.70
2019-05-10T20:58:32.072Z,17.70
2019-05-10T21:01:01.004Z,17.70
2019-05-10T21:03:29.839Z,17.70
2019-05-10T21:05:58.713Z,17.60
2019-05-10T21:08:27.546Z,17.70
2019-05-10T21:10:56.417Z,17.60
2019-05-10T21:13:25.228Z,17.60
2019-05-10T21:15:54.062Z,17.60
2019-05-10T21:18:22.946Z,17.60
2019-05-10T21:20:51.784Z,17.50
2019-05-10T21:23:20.686Z,17.50
2019-05-10T21:25:49.506Z,17.40
2019-05-10T21:28:18.343Z,17.50
2019-05-10T21:30:47.220Z,17.50
2019-05-10T21:33:16.060Z,17.40
2019-05-10T21:35:44.928Z,17.40
2019-05-10T21:38:13.773Z,17.40
2019-05-10T21:40:42.598Z,17.40
2019-05-10T21:43:11.459Z,17.30
2019-05-10T21:45:40.286Z,17.30
2019-05-10T21:48:09.151Z,17.30
2019-05-10T21:50:37.975Z,17.30
2019-05-10T21:53:06.869Z,17.30
2019-05-10T21:55:35.695Z,17.30
2019-05-10T21:58:04.545Z,17.30
2019-05-10T22:00:35.066Z,17.20
2019-05-10T22:03:04.185Z,17.20
2019-05-10T22:05:33.028Z,17.20
2019-05-10T22:08:01.862Z,17.20
2019-05-10T22:10:30.735Z,17.10
2019-05-10T22:12:59.587Z,17.10
2019-05-10T22:15:28.414Z,17.00
2019-05-10T22:17:57.260Z,17.00
2019-05-10T22:20:26.075Z,17.00
2019-05-10T22:22:54.950Z,17.00
2019-05-10T22:25:23.806Z,16.90
2019-05-10T22:27:52.626Z,16.90
2019-05-10T22:30:21.491Z,16.80
2019-05-10T22:32:50.325Z,16.90
2019-05-10T22:35:19.186Z,16.80
2019-05-10T22:37:48.043Z,16.80
2019-05-10T22:40:16.870Z,16.80
2019-05-10T22:42:45.713Z,16.80
2019-05-10T22:45:14.661Z,16.80
2019-05-10T22:47:43.530Z,16.70
2019-05-10T22:50:12.586Z,16.70
2019-05-10T22:52:41.429Z,16.60
2019-05-10T22:55:10.681Z,16.60
2019-05-10T22:57:39.521Z,16.60
2019-05-10T23:00:10.194Z,16.50
2019-05-10T23:02:39.022Z,16.50
2019-05-10T23:05:07.828Z,16.50
2019-05-10T23:07:36.712Z,16.50
2019-05-10T23:10:05.930Z,16.40
2019-05-10T23:12:34.814Z,16.40
2019-05-10T23:15:04.464Z,16.40
2019-05-10T23:17:33.278Z,16.40
2019-05-10T23:20:02.157Z,16.40
2019-05-10T23:22:30.964Z,16.30
2019-05-10T23:24:59.848Z,16.20
2019-05-10T23:27:28.678Z,16.20
2019-05-10T23:29:57.482Z,16.20
2019-05-10T23:32:26.732Z,16.20
2019-05-10T23:34:55.576Z,16.10
2019-05-10T23:37:24.454Z,16.00
2019-05-10T23:39:53.279Z,16.00
2019-05-10T23:42:22.100Z,15.90
2019-05-10T23:44:50.967Z,15.80
2019-05-10T23:47:19.808Z,15.70
2019-05-10T23:49:48.682Z,15.70
2019-05-10T23:52:17.506Z,15.60
2019-05-10T23:54:46.344Z,15.60
2019-05-10T23:57:15.208Z,15.60
2019-05-10T23:59:44.036Z,15.60
